Terminal Aerodrome Forecast
Issued by NWS

Home | Current Version | Previous Version | Text Only | Print | Product List | Glossary Off
Versions: 1 2 3 4 5 6 7 8 9 10 11 12 13 14

000
FTUS42 KMHX 270500
TAFOAJ
TAF
KOAJ 270534Z 2706/2806 30008G15KT P6SM OVC015
     FM271800 33006G15KT P6SM OVC025
     FM272100 32007KT P6SM OVC035
     FM280000 30004KT P6SM SCT040
      AMD LTD TO CLD VIS AND WIND=

USA.gov is the U.S. government's official web portal to all federal, state and local government web resources and services.